Terminal Aerodrome Forecast
Issued by NWS Cleveland, OH

Home | Current Version | Previous Version | Graphics & Text | Print | Product List | Glossary On
Versions: 1 2 3 4 5 6 7 8 9 10 11 12 13 14 15 16 17 18 19 20 21 22 23 24 25 26
481
FTUS41 KCLE 220345 AAA
TAFMFD
TAF AMD
KMFD 220345Z 2204/2224 36015G25KT P6SM SCT030
      TEMPO 2204/2206 BKN030
     FM220600 36015G22KT P6SM BKN035
     FM221500 01013KT P6SM SCT035
     FM222200 02007KT P6SM SKC=

USA.gov is the U.S. government's official web portal to all federal, state and local government web resources and services.